createdAt,value
2022-10-18T00:01:03.731Z,7.95
2022-10-18T00:02:35.507Z,7.75
2022-10-18T00:04:07.254Z,8.27
2022-10-18T00:05:38.985Z,7.70
2022-10-18T00:07:10.715Z,9.18
2022-10-18T00:08:42.500Z,8.23
2022-10-18T00:10:15.535Z,8.30
2022-10-18T00:11:47.473Z,9.25
2022-10-18T00:13:19.335Z,9.43
2022-10-18T00:14:51.149Z,9.55
2022-10-18T00:16:23.087Z,8.27
2022-10-18T00:17:54.859Z,8.88
2022-10-18T00:19:29.184Z,9.13
2022-10-18T00:21:01.922Z,7.63
2022-10-18T00:22:34.179Z,7.95
2022-10-18T00:24:06.410Z,7.75
2022-10-18T00:25:39.541Z,6.80
2022-10-18T00:27:11.319Z,10.70
2022-10-18T00:28:43.180Z,7.43
2022-10-18T00:30:14.981Z,8.05
2022-10-18T00:31:46.673Z,8.23
2022-10-18T00:33:18.401Z,7.70
2022-10-18T00:34:50.213Z,7.70
2022-10-18T00:36:21.903Z,8.13
2022-10-18T00:37:53.711Z,7.93
2022-10-18T00:39:25.524Z,7.93
2022-10-18T00:40:58.654Z,8.75
2022-10-18T00:42:31.954Z,8.02
2022-10-18T00:44:05.006Z,8.07
2022-10-18T00:45:36.685Z,8.10
2022-10-18T00:47:09.366Z,7.53
2022-10-18T00:48:41.139Z,7.72
2022-10-18T00:50:12.945Z,7.95
2022-10-18T00:51:46.306Z,8.80
2022-10-18T00:53:19.007Z,7.63
2022-10-18T00:54:50.856Z,6.60
2022-10-18T00:56:23.935Z,7.53
2022-10-18T00:57:55.660Z,7.90
2022-10-18T00:59:27.633Z,6.80
2022-10-18T01:00:59.350Z,7.32
2022-10-18T01:02:31.270Z,7.32
2022-10-18T01:04:03.345Z,6.55
2022-10-18T01:05:36.502Z,7.68
2022-10-18T01:07:13.190Z,8.00
2022-10-18T01:08:50.497Z,8.00
2022-10-18T01:10:27.122Z,7.50
2022-10-18T01:12:13.659Z,7.90
2022-10-18T01:13:54.221Z,7.82
2022-10-18T01:15:27.333Z,9.80
2022-10-18T01:17:00.529Z,7.43
2022-10-18T01:18:36.255Z,8.55
2022-10-18T01:20:32.362Z,7.32
2022-10-18T01:22:06.794Z,8.88
2022-10-18T01:24:03.632Z,9.48
2022-10-18T01:25:42.135Z,8.40
2022-10-18T01:27:52.646Z,7.88
2022-10-18T01:29:30.515Z,8.10
2022-10-18T01:31:03.807Z,8.35
2022-10-18T01:32:36.567Z,13.23
2022-10-18T01:34:08.510Z,8.52
2022-10-18T01:35:42.357Z,8.98
2022-10-18T01:37:14.868Z,8.95
2022-10-18T01:38:47.381Z,8.25
2022-10-18T01:40:20.407Z,9.88
2022-10-18T01:41:52.150Z,8.73
2022-10-18T01:43:23.857Z,9.02
2022-10-18T01:44:55.549Z,10.90
2022-10-18T01:46:28.696Z,8.70
2022-10-18T01:48:00.448Z,11.05
2022-10-18T01:49:33.351Z,8.75
2022-10-18T01:51:05.381Z,8.57
2022-10-18T01:52:47.944Z,9.02
2022-10-18T01:54:21.814Z,9.95
2022-10-18T01:56:02.544Z,13.35
2022-10-18T01:57:37.051Z,9.80
2022-10-18T01:59:17.434Z,10.63
2022-10-18T02:00:50.065Z,8.73
2022-10-18T02:02:32.243Z,8.90
2022-10-18T02:04:08.136Z,10.13
2022-10-18T02:05:41.125Z,10.38
2022-10-18T02:07:16.887Z,12.70
2022-10-18T02:08:50.559Z,10.02
2022-10-18T02:10:24.927Z,11.27
2022-10-18T02:11:56.707Z,15.07
2022-10-18T02:13:30.207Z,11.55
2022-10-18T02:15:02.122Z,11.60
2022-10-18T02:16:36.030Z,11.00
2022-10-18T02:18:11.102Z,10.38
2022-10-18T02:19:44.182Z,10.30
2022-10-18T02:21:17.603Z,11.48
2022-10-18T02:22:49.471Z,13.32
2022-10-18T02:24:21.220Z,12.68
2022-10-18T02:25:52.976Z,12.25
2022-10-18T02:27:24.733Z,10.65
2022-10-18T02:28:56.524Z,10.10
2022-10-18T02:30:29.491Z,10.27
2022-10-18T02:32:04.436Z,11.13
2022-10-18T02:33:39.521Z,10.57
2022-10-18T02:35:11.779Z,8.50
2022-10-18T02:36:45.525Z,8.68
2022-10-18T02:38:17.396Z,9.05
2022-10-18T02:39:49.426Z,9.77
2022-10-18T02:41:24.707Z,8.80
2022-10-18T02:42:57.193Z,9.98
2022-10-18T02:44:28.988Z,10.48
2022-10-18T02:46:00.787Z,11.70
2022-10-18T02:47:34.457Z,10.50
2022-10-18T02:49:07.796Z,9.63
2022-10-18T02:50:39.466Z,10.65
2022-10-18T02:52:11.630Z,9.93
2022-10-18T02:53:43.381Z,9.65
2022-10-18T02:55:15.236Z,8.95
2022-10-18T02:56:47.089Z,8.40
2022-10-18T02:58:18.837Z,10.57
2022-10-18T02:59:50.542Z,7.55
2022-10-18T03:01:22.329Z,7.70
2022-10-18T03:02:54.778Z,7.85
2022-10-18T03:06:00.562Z,8.88
2022-10-18T03:07:32.559Z,8.80
2022-10-18T03:09:05.011Z,11.57
2022-10-18T03:10:36.776Z,10.43
2022-10-18T03:12:08.576Z,8.73
2022-10-18T03:13:42.418Z,9.10
2022-10-18T03:15:14.255Z,7.90
2022-10-18T03:16:45.974Z,9.32
2022-10-18T03:18:17.715Z,8.60
2022-10-18T03:19:50.744Z,8.73
2022-10-18T03:21:22.564Z,7.88
2022-10-18T03:22:54.322Z,7.75
2022-10-18T03:24:26.095Z,7.80
2022-10-18T03:25:57.837Z,7.63
2022-10-18T03:27:29.814Z,10.13
2022-10-18T03:29:01.816Z,9.48
2022-10-18T03:30:33.666Z,8.77
2022-10-18T03:32:05.818Z,7.50
2022-10-18T03:33:37.751Z,7.18
2022-10-18T03:35:11.147Z,8.75
2022-10-18T03:36:42.850Z,8.48
2022-10-18T03:38:14.621Z,9.82
2022-10-18T03:39:46.488Z,11.32
2022-10-18T03:41:18.310Z,16.65
2022-10-18T03:42:51.884Z,15.45
2022-10-18T03:44:23.724Z,12.80
2022-10-18T03:46:01.202Z,16.88
2022-10-18T03:47:32.913Z,14.45
2022-10-18T03:49:04.703Z,12.98
2022-10-18T03:50:37.767Z,14.82
2022-10-18T03:52:09.566Z,12.02
2022-10-18T03:53:41.356Z,14.85
2022-10-18T03:55:13.090Z,13.90
2022-10-18T03:56:44.787Z,15.02
2022-10-18T03:58:16.656Z,19.40
2022-10-18T03:59:48.878Z,14.02
2022-10-18T04:01:20.704Z,16.65
2022-10-18T04:02:55.071Z,16.05
2022-10-18T04:04:27.781Z,13.35
2022-10-18T04:06:03.430Z,15.07
2022-10-18T04:09:09.483Z,14.73
2022-10-18T04:10:42.101Z,17.83
2022-10-18T04:12:13.881Z,17.85
2022-10-18T04:13:45.800Z,12.95
2022-10-18T04:15:17.739Z,13.88
2022-10-18T04:16:49.518Z,14.63
2022-10-18T04:18:21.270Z,15.40
2022-10-18T04:19:53.001Z,24.48
2022-10-18T04:21:26.041Z,13.32
2022-10-18T04:22:58.173Z,14.23
2022-10-18T04:24:29.866Z,14.80
2022-10-18T04:26:01.505Z,13.57
2022-10-18T04:27:33.326Z,12.93
2022-10-18T04:29:05.335Z,16.88
2022-10-18T04:30:37.015Z,14.18
2022-10-18T04:32:08.678Z,14.82
2022-10-18T04:33:40.422Z,14.45
2022-10-18T04:35:12.092Z,16.17
2022-10-18T04:36:45.144Z,16.58
2022-10-18T04:38:16.885Z,13.40
2022-10-18T04:39:51.362Z,16.23
2022-10-18T04:41:25.440Z,16.63
2022-10-18T04:42:57.095Z,17.40
2022-10-18T04:44:28.749Z,13.55
2022-10-18T04:46:00.595Z,12.07
2022-10-18T04:47:32.506Z,14.38
2022-10-18T04:49:04.415Z,13.23
2022-10-18T04:50:36.032Z,12.73
2022-10-18T04:52:09.220Z,14.38
2022-10-18T04:53:40.863Z,12.82
2022-10-18T04:55:12.517Z,18.05
2022-10-18T04:56:44.132Z,11.77
2022-10-18T04:58:16.035Z,11.43
2022-10-18T04:59:47.754Z,11.70
2022-10-18T05:01:19.444Z,14.45
2022-10-18T05:02:55.753Z,21.52
2022-10-18T05:04:27.606Z,16.92
2022-10-18T05:06:03.053Z,14.65
2022-10-18T05:07:36.613Z,14.45
2022-10-18T05:09:08.297Z,11.98
2022-10-18T05:10:39.939Z,12.00
2022-10-18T05:12:11.609Z,13.02
2022-10-18T05:13:45.951Z,12.35
2022-10-18T05:15:18.966Z,11.18
2022-10-18T05:16:50.587Z,14.32
2022-10-18T05:18:22.458Z,14.27
2022-10-18T05:19:54.090Z,10.73
2022-10-18T05:21:25.741Z,10.05
2022-10-18T05:22:58.861Z,17.00
2022-10-18T05:24:30.579Z,13.55
2022-10-18T05:26:03.299Z,14.27
2022-10-18T05:27:34.969Z,11.98
2022-10-18T05:29:06.736Z,11.50
2022-10-18T05:30:38.870Z,12.00
2022-10-18T05:32:10.581Z,11.05
2022-10-18T05:33:42.340Z,12.50
2022-10-18T05:35:14.533Z,10.52
2022-10-18T05:36:46.460Z,10.82
2022-10-18T05:38:19.561Z,11.80
2022-10-18T05:39:51.272Z,18.98
2022-10-18T05:41:23.004Z,22.13
2022-10-18T05:42:54.642Z,17.80
2022-10-18T05:44:26.455Z,17.65
2022-10-18T05:45:58.173Z,37.97
2022-10-18T05:47:29.903Z,10.65
2022-10-18T05:49:01.782Z,10.60
2022-10-18T05:50:36.682Z,12.43
2022-10-18T05:52:11.432Z,17.15
2022-10-18T05:53:44.616Z,16.92
2022-10-18T05:55:16.454Z,13.77
2022-10-18T05:56:48.287Z,13.45
2022-10-18T05:58:21.497Z,13.32
2022-10-18T05:59:53.261Z,11.57
2022-10-18T06:01:25.010Z,13.93
2022-10-18T06:03:00.212Z,12.63
2022-10-18T06:04:32.385Z,11.90
2022-10-18T06:06:05.377Z,13.15
2022-10-18T06:07:37.164Z,15.43
2022-10-18T06:09:10.282Z,19.88
2022-10-18T06:10:41.943Z,13.93
2022-10-18T06:12:13.546Z,20.75
2022-10-18T06:13:46.815Z,13.82
2022-10-18T06:15:18.800Z,12.93
2022-10-18T06:16:50.604Z,21.73
2022-10-18T06:18:22.374Z,13.15
2022-10-18T06:19:54.116Z,12.82
2022-10-18T06:21:25.841Z,13.70
2022-10-18T06:22:57.555Z,14.68
2022-10-18T06:24:30.636Z,15.55
2022-10-18T06:26:03.183Z,18.30
2022-10-18T06:27:35.264Z,26.08
2022-10-18T06:29:07.166Z,17.05
2022-10-18T06:30:38.973Z,18.00
2022-10-18T06:32:10.702Z,22.08
2022-10-18T06:33:42.429Z,15.18
2022-10-18T06:35:14.170Z,14.25
2022-10-18T06:36:45.870Z,14.75
2022-10-18T06:38:17.678Z,24.13
2022-10-18T06:39:50.952Z,25.70
2022-10-18T06:41:22.751Z,17.13
2022-10-18T06:43:05.791Z,15.95
2022-10-18T06:44:42.468Z,24.90
2022-10-18T06:46:14.211Z,23.38
2022-10-18T06:47:45.965Z,19.08
2022-10-18T06:49:19.205Z,15.98
2022-10-18T06:50:55.294Z,20.90
2022-10-18T06:52:28.251Z,15.45
2022-10-18T06:54:16.734Z,20.63
2022-10-18T06:55:51.322Z,26.40
2022-10-18T06:57:23.205Z,37.97
2022-10-18T06:59:31.874Z,16.48
2022-10-18T07:02:01.189Z,21.90
2022-10-18T07:04:10.406Z,17.73
2022-10-18T07:06:42.236Z,18.23
2022-10-18T07:08:32.502Z,15.68
2022-10-18T07:10:23.669Z,17.90
2022-10-18T07:11:57.217Z,36.58
2022-10-18T07:14:07.370Z,24.25
2022-10-18T07:15:39.193Z,24.25
2022-10-18T07:17:15.131Z,24.02
2022-10-18T07:18:48.351Z,24.02
2022-10-18T07:20:20.111Z,28.65
2022-10-18T07:21:51.921Z,16.67
2022-10-18T07:23:24.038Z,50.90
2022-10-18T07:25:16.663Z,23.10
2022-10-18T07:26:48.522Z,23.58
2022-10-18T07:28:21.766Z,33.53
2022-10-18T07:29:53.561Z,29.27
2022-10-18T07:31:25.495Z,25.70
2022-10-18T07:32:57.456Z,19.73
2022-10-18T07:34:29.341Z,17.70
2022-10-18T07:36:01.705Z,32.47
2022-10-18T07:37:33.668Z,17.15
2022-10-18T07:39:05.748Z,31.98
2022-10-18T07:40:37.776Z,25.83
2022-10-18T07:42:09.567Z,33.08
2022-10-18T07:43:44.005Z,31.60
2022-10-18T07:45:15.919Z,26.52
2022-10-18T07:46:47.698Z,33.85
2022-10-18T07:48:19.550Z,51.47
2022-10-18T07:49:51.559Z,41.65
2022-10-18T07:51:23.509Z,28.23
2022-10-18T07:52:55.491Z,28.63
2022-10-18T07:54:27.279Z,37.00
2022-10-18T07:55:59.193Z,26.63
2022-10-18T07:57:31.732Z,31.20
2022-10-18T07:59:05.223Z,23.45
2022-10-18T08:00:37.130Z,20.40
2022-10-18T08:02:09.482Z,23.42
2022-10-18T08:03:41.572Z,26.65
2022-10-18T08:05:13.454Z,32.10
2022-10-18T08:06:47.962Z,18.20
2022-10-18T08:08:20.054Z,20.13
2022-10-18T08:09:51.957Z,23.73
2022-10-18T08:11:25.198Z,19.23
2022-10-18T08:13:00.187Z,29.92
2022-10-18T08:14:33.517Z,39.65
2022-10-18T08:16:06.464Z,25.90
2022-10-18T08:17:38.307Z,36.47
2022-10-18T08:19:11.229Z,21.13
2022-10-18T08:20:43.574Z,33.05
2022-10-18T08:22:15.529Z,19.90
2022-10-18T08:23:47.558Z,28.30
2022-10-18T08:25:21.371Z,23.38
2022-10-18T08:26:53.281Z,29.65
2022-10-18T08:28:25.419Z,25.48
2022-10-18T08:30:00.020Z,20.98
2022-10-18T08:31:32.010Z,19.55
2022-10-18T08:33:03.891Z,37.08
2022-10-18T08:34:41.766Z,36.08
2022-10-18T08:36:15.023Z,33.25
2022-10-18T08:37:47.314Z,28.15
2022-10-18T08:39:19.214Z,32.60
2022-10-18T08:40:51.185Z,22.88
2022-10-18T08:42:39.689Z,21.17
2022-10-18T08:44:14.096Z,27.60
2022-10-18T08:45:47.576Z,21.30
2022-10-18T08:47:20.376Z,33.67
2022-10-18T08:48:54.587Z,26.17
2022-10-18T08:50:27.908Z,20.40
2022-10-18T08:51:59.783Z,33.40
2022-10-18T08:53:36.190Z,28.35
2022-10-18T08:55:12.558Z,23.92
2022-10-18T08:56:46.744Z,44.83
2022-10-18T08:58:19.989Z,39.88
2022-10-18T08:59:53.545Z,31.25
2022-10-18T09:01:29.179Z,26.73
2022-10-18T09:03:10.279Z,25.20
2022-10-18T09:04:47.143Z,31.85
2022-10-18T09:06:22.748Z,22.88
2022-10-18T09:08:03.531Z,30.85
2022-10-18T09:09:38.162Z,22.00
2022-10-18T09:11:21.826Z,25.95
2022-10-18T09:13:06.484Z,22.23
2022-10-18T09:15:15.381Z,23.42
2022-10-18T09:16:50.698Z,19.75
2022-10-18T09:18:37.276Z,19.40
2022-10-18T09:20:16.483Z,17.23
2022-10-18T09:21:51.153Z,18.00
2022-10-18T09:23:27.006Z,17.40
2022-10-18T09:25:02.342Z,18.42
2022-10-18T09:26:38.135Z,16.92
2022-10-18T09:28:15.436Z,14.85
2022-10-18T09:29:54.258Z,15.55
2022-10-18T09:31:28.216Z,20.80
2022-10-18T09:33:05.403Z,24.05
2022-10-18T09:34:38.611Z,22.73
2022-10-18T09:36:11.333Z,23.35
2022-10-18T09:37:43.092Z,21.92
2022-10-18T09:39:15.473Z,21.23
2022-10-18T09:40:51.128Z,22.23
2022-10-18T09:42:26.713Z,23.35
2022-10-18T09:43:59.078Z,22.52
2022-10-18T09:45:31.977Z,23.77
2022-10-18T09:47:06.433Z,25.30
2022-10-18T09:48:43.186Z,24.55
2022-10-18T09:50:18.014Z,23.42
2022-10-18T09:51:50.157Z,23.98
2022-10-18T09:53:25.310Z,23.63
2022-10-18T09:54:58.129Z,24.15
2022-10-18T09:56:30.215Z,22.58
2022-10-18T09:58:02.731Z,22.35
2022-10-18T09:59:36.427Z,21.95
2022-10-18T10:01:08.407Z,24.17
2022-10-18T10:02:40.241Z,22.88
2022-10-18T10:04:15.415Z,20.85
2022-10-18T10:05:47.098Z,19.70
2022-10-18T10:07:19.527Z,21.73
2022-10-18T10:08:54.792Z,20.42
2022-10-18T10:10:27.194Z,19.75
2022-10-18T10:11:59.035Z,19.25
2022-10-18T10:13:31.198Z,18.75
2022-10-18T10:15:12.185Z,18.67
2022-10-18T10:16:54.222Z,18.73
2022-10-18T10:18:26.469Z,21.55
2022-10-18T10:20:02.090Z,19.10
2022-10-18T10:21:33.788Z,20.40
2022-10-18T10:23:07.136Z,17.00
2022-10-18T10:24:47.711Z,18.50
2022-10-18T10:26:22.599Z,17.50
2022-10-18T10:27:54.425Z,16.42
2022-10-18T10:29:56.658Z,14.57
2022-10-18T10:31:29.086Z,16.83
2022-10-18T10:33:00.721Z,15.18
2022-10-18T10:34:32.495Z,12.18
2022-10-18T10:36:07.123Z,12.85
2022-10-18T10:37:38.976Z,11.93
2022-10-18T10:39:12.275Z,11.00
2022-10-18T10:40:46.465Z,10.10
2022-10-18T10:42:18.129Z,10.23
2022-10-18T10:43:50.318Z,12.70
2022-10-18T10:45:22.305Z,14.73
2022-10-18T10:46:55.118Z,15.32
2022-10-18T10:48:29.909Z,13.38
2022-10-18T10:50:09.588Z,14.10
2022-10-18T10:51:43.619Z,13.43
2022-10-18T10:53:32.708Z,12.23
2022-10-18T10:55:11.391Z,11.40
2022-10-18T10:56:56.734Z,12.25
2022-10-18T10:58:29.379Z,13.38
2022-10-18T11:00:01.078Z,13.93
2022-10-18T11:01:33.050Z,13.60
2022-10-18T11:03:27.275Z,11.82
2022-10-18T11:05:16.638Z,10.20
2022-10-18T11:06:56.486Z,10.52
2022-10-18T11:08:29.620Z,9.85
2022-10-18T11:10:02.390Z,8.10
2022-10-18T11:11:39.905Z,7.97
2022-10-18T11:13:23.447Z,7.82
2022-10-18T11:14:59.541Z,7.40
2022-10-18T11:16:32.973Z,7.43
2022-10-18T11:18:09.386Z,6.53
2022-10-18T11:19:48.948Z,6.95
2022-10-18T11:21:23.120Z,6.65
2022-10-18T11:23:03.502Z,7.57
2022-10-18T11:24:35.526Z,7.13
2022-10-18T11:26:31.003Z,7.22
2022-10-18T11:28:04.262Z,7.15
2022-10-18T11:29:43.689Z,7.00
2022-10-18T11:31:17.659Z,7.95
2022-10-18T11:32:52.501Z,8.13
2022-10-18T11:34:49.409Z,8.85
2022-10-18T11:38:10.794Z,8.82
2022-10-18T11:39:48.779Z,9.40
2022-10-18T11:41:28.411Z,8.88
2022-10-18T11:43:03.379Z,8.15
2022-10-18T11:44:37.402Z,8.73
2022-10-18T11:46:12.072Z,7.70
2022-10-18T11:47:49.091Z,8.18
2022-10-18T11:49:46.037Z,8.68
2022-10-18T11:51:29.683Z,8.80
2022-10-18T11:53:16.514Z,9.00
2022-10-18T11:55:01.073Z,9.30
2022-10-18T11:56:38.295Z,10.10
2022-10-18T11:58:18.518Z,9.70
2022-10-18T11:59:54.146Z,10.10
2022-10-18T12:01:28.749Z,9.80
2022-10-18T12:03:12.428Z,10.98
2022-10-18T12:05:05.123Z,11.20
2022-10-18T12:06:38.866Z,11.25
2022-10-18T12:08:13.432Z,10.90
2022-10-18T12:09:45.900Z,12.05
2022-10-18T12:11:19.630Z,11.90
2022-10-18T12:12:52.356Z,11.98
2022-10-18T12:14:25.928Z,11.60
2022-10-18T12:15:57.573Z,11.65
2022-10-18T12:17:47.542Z,11.10
2022-10-18T12:19:26.212Z,11.18
2022-10-18T12:20:58.834Z,11.63
2022-10-18T12:22:34.713Z,11.38
2022-10-18T12:24:09.180Z,10.68
2022-10-18T12:25:42.142Z,10.77
2022-10-18T12:27:15.123Z,10.75
2022-10-18T12:28:51.580Z,10.02
2022-10-18T12:30:27.184Z,10.20
2022-10-18T12:31:59.504Z,9.52
2022-10-18T12:33:36.345Z,9.90
2022-10-18T12:35:11.250Z,10.07
2022-10-18T12:37:11.078Z,10.15
2022-10-18T12:38:43.756Z,9.40
2022-10-18T12:40:21.125Z,9.07
2022-10-18T12:41:53.287Z,9.02
2022-10-18T12:43:25.573Z,8.98
2022-10-18T12:45:04.064Z,10.25
2022-10-18T12:46:45.092Z,10.18
2022-10-18T12:48:33.163Z,9.48
2022-10-18T12:50:22.636Z,9.15
2022-10-18T12:51:54.775Z,8.93
2022-10-18T12:53:26.931Z,8.45
2022-10-18T12:55:04.478Z,7.93
2022-10-18T12:56:41.717Z,8.45
2022-10-18T12:58:27.904Z,7.93
2022-10-18T12:59:59.507Z,8.05
2022-10-18T13:01:40.463Z,7.32
2022-10-18T13:04:00.606Z,8.23
2022-10-18T13:05:56.099Z,8.02
2022-10-18T13:07:40.975Z,7.20
2022-10-18T13:09:17.710Z,7.82
2022-10-18T13:10:49.481Z,6.95
2022-10-18T13:12:54.046Z,7.10
2022-10-18T13:15:07.075Z,6.90
2022-10-18T13:16:46.157Z,7.10
2022-10-18T13:18:19.519Z,6.88
2022-10-18T13:20:20.473Z,5.80
2022-10-18T13:21:50.346Z,5.57
2022-10-18T13:23:32.732Z,4.70
2022-10-18T13:25:13.303Z,4.80
2022-10-18T13:26:58.218Z,4.60
2022-10-18T13:28:51.814Z,4.80
2022-10-18T13:30:39.599Z,4.53
2022-10-18T13:32:17.946Z,4.30
2022-10-18T13:33:49.668Z,5.70
2022-10-18T13:35:44.668Z,5.70
2022-10-18T13:37:20.718Z,5.30
2022-10-18T13:39:02.058Z,4.85
2022-10-18T13:40:33.693Z,5.20
2022-10-18T13:42:30.721Z,6.20
2022-10-18T13:44:25.329Z,6.43
2022-10-18T13:45:57.154Z,6.90
2022-10-18T13:47:36.240Z,6.88
2022-10-18T13:49:20.849Z,6.53
2022-10-18T13:50:52.494Z,6.10
2022-10-18T13:52:26.429Z,6.10
2022-10-18T13:54:00.298Z,6.40
2022-10-18T13:55:42.558Z,5.97
2022-10-18T13:57:20.298Z,5.65
2022-10-18T13:59:13.645Z,6.40
2022-10-18T14:00:52.559Z,6.10
2022-10-18T14:02:52.321Z,6.47
2022-10-18T14:04:38.955Z,6.07
2022-10-18T14:06:11.647Z,5.90
2022-10-18T14:07:43.336Z,6.50
2022-10-18T14:09:26.212Z,6.67
2022-10-18T14:11:14.161Z,6.87
2022-10-18T14:12:47.802Z,7.03
2022-10-18T14:14:23.110Z,6.87
2022-10-18T14:15:58.624Z,7.10
2022-10-18T14:17:34.165Z,6.97
2022-10-18T14:19:12.026Z,7.10
2022-10-18T14:21:01.582Z,6.43
2022-10-18T14:22:38.377Z,7.70
2022-10-18T14:24:18.940Z,7.60
2022-10-18T14:25:50.588Z,8.27
2022-10-18T14:27:22.922Z,8.70
2022-10-18T14:29:05.151Z,8.60
2022-10-18T14:30:36.872Z,9.23
2022-10-18T14:32:10.965Z,9.70
2022-10-18T14:33:43.401Z,9.25
2022-10-18T14:35:34.082Z,10.18
2022-10-18T14:37:05.718Z,9.98
2022-10-18T14:38:38.433Z,10.73
2022-10-18T14:40:28.497Z,9.13
2022-10-18T14:42:00.650Z,10.43
2022-10-18T14:43:32.296Z,10.00
2022-10-18T14:45:17.698Z,9.20
2022-10-18T14:46:50.452Z,10.43
2022-10-18T14:48:23.667Z,10.85
2022-10-18T14:49:57.786Z,9.63
2022-10-18T14:51:32.233Z,10.57
2022-10-18T14:53:07.128Z,10.02
2022-10-18T14:54:38.857Z,10.80
2022-10-18T14:56:22.403Z,10.50
2022-10-18T14:57:54.103Z,10.05
2022-10-18T14:59:26.901Z,10.70
2022-10-18T15:00:58.569Z,10.15
2022-10-18T15:02:31.011Z,10.02
2022-10-18T15:04:06.145Z,9.27
2022-10-18T15:05:37.840Z,8.98
2022-10-18T15:07:16.174Z,9.38
2022-10-18T15:08:51.276Z,9.10
2022-10-18T15:10:23.797Z,9.60
2022-10-18T15:11:57.727Z,9.00
2022-10-18T15:13:30.018Z,9.23
2022-10-18T15:15:01.843Z,9.68
2022-10-18T15:16:33.521Z,8.85
2022-10-18T15:18:06.514Z,9.00
2022-10-18T15:19:41.829Z,9.00
2022-10-18T15:21:23.235Z,8.90
2022-10-18T15:22:54.949Z,8.63
2022-10-18T15:24:30.136Z,8.70
2022-10-18T15:26:03.249Z,8.65
2022-10-18T15:27:36.215Z,8.93
2022-10-18T15:29:16.358Z,8.25
2022-10-18T15:30:47.973Z,8.75
2022-10-18T15:32:21.583Z,8.82
2022-10-18T15:33:53.718Z,8.80
2022-10-18T15:35:29.061Z,8.45
2022-10-18T15:37:00.857Z,8.27
2022-10-18T15:38:32.738Z,9.02
2022-10-18T15:40:31.597Z,9.10
2022-10-18T15:42:03.495Z,8.20
2022-10-18T15:43:39.427Z,9.30
2022-10-18T15:45:28.029Z,11.70
2022-10-18T15:47:10.292Z,11.43
2022-10-18T15:48:42.071Z,13.85
2022-10-18T15:50:16.982Z,12.85
2022-10-18T15:51:50.424Z,10.35
2022-10-18T15:53:43.789Z,9.23
2022-10-18T15:55:47.742Z,9.02
2022-10-18T15:57:19.339Z,8.52
2022-10-18T15:58:51.391Z,7.70
2022-10-18T16:00:22.980Z,8.50
2022-10-18T16:01:54.790Z,7.82
2022-10-18T16:03:26.563Z,8.57
2022-10-18T16:04:58.855Z,7.95
2022-10-18T16:06:30.510Z,7.78
2022-10-18T16:08:03.532Z,7.30
2022-10-18T16:09:35.200Z,8.25
2022-10-18T16:11:07.139Z,7.28
2022-10-18T16:12:38.907Z,7.53
2022-10-18T16:14:11.030Z,7.70
2022-10-18T16:15:42.829Z,7.43
2022-10-18T16:17:16.960Z,8.05
2022-10-18T16:18:48.754Z,7.18
2022-10-18T16:20:21.397Z,7.40
2022-10-18T16:21:53.664Z,7.25
2022-10-18T16:23:28.489Z,7.45
2022-10-18T16:25:00.111Z,7.45
2022-10-18T16:26:31.799Z,7.18
2022-10-18T16:28:04.117Z,7.53
2022-10-18T16:29:35.765Z,8.43
2022-10-18T16:31:07.757Z,7.93
2022-10-18T16:32:40.413Z,8.20
2022-10-18T16:34:12.153Z,7.85
2022-10-18T16:35:43.952Z,7.38
2022-10-18T16:37:15.590Z,7.32
2022-10-18T16:38:48.716Z,7.28
2022-10-18T16:40:23.288Z,7.00
2022-10-18T16:41:55.273Z,7.45
2022-10-18T16:43:26.945Z,7.10
2022-10-18T16:44:58.647Z,7.25
2022-10-18T16:46:31.161Z,7.30
2022-10-18T16:48:02.918Z,7.00
2022-10-18T16:49:34.834Z,6.97
2022-10-18T16:51:06.719Z,7.30
2022-10-18T16:52:38.369Z,6.90
2022-10-18T16:54:11.471Z,7.30
2022-10-18T16:55:43.150Z,7.03
2022-10-18T16:57:15.795Z,7.45
2022-10-18T16:58:47.479Z,6.80
2022-10-18T17:00:20.927Z,8.10
2022-10-18T17:01:52.715Z,8.90
2022-10-18T17:03:24.638Z,8.55
2022-10-18T17:04:56.284Z,9.05
2022-10-18T17:06:29.280Z,8.07
2022-10-18T17:08:01.074Z,7.95
2022-10-18T17:09:35.885Z,8.43
2022-10-18T17:11:08.991Z,7.15
2022-10-18T17:12:40.745Z,7.55
2022-10-18T17:14:12.591Z,6.72
2022-10-18T17:15:44.337Z,6.88
2022-10-18T17:17:16.027Z,6.70
2022-10-18T17:18:47.684Z,7.30
2022-10-18T17:20:21.149Z,7.40
2022-10-18T17:21:52.835Z,6.45
2022-10-18T17:23:24.516Z,7.40
2022-10-18T17:24:57.693Z,7.18
2022-10-18T17:26:30.130Z,7.60
2022-10-18T17:28:02.157Z,6.35
2022-10-18T17:29:33.843Z,6.80
2022-10-18T17:31:06.516Z,6.90
2022-10-18T17:32:38.289Z,6.80
2022-10-18T17:34:09.928Z,7.30
2022-10-18T17:35:41.700Z,7.43
2022-10-18T17:37:13.856Z,6.95
2022-10-18T17:38:47.964Z,7.50
2022-10-18T17:40:23.792Z,6.68
2022-10-18T17:41:55.684Z,7.05
2022-10-18T17:43:27.429Z,6.88
2022-10-18T17:45:01.334Z,6.85
2022-10-18T17:46:32.956Z,7.10
2022-10-18T17:48:04.645Z,7.65
2022-10-18T17:49:36.296Z,7.82
2022-10-18T17:51:08.755Z,7.55
2022-10-18T17:54:12.897Z,7.05
2022-10-18T17:55:45.895Z,6.53
2022-10-18T17:57:17.549Z,6.53
2022-10-18T17:58:50.639Z,6.50
2022-10-18T18:00:24.497Z,6.00
2022-10-18T18:01:56.115Z,6.53
2022-10-18T18:03:27.849Z,6.55
2022-10-18T18:04:59.635Z,7.13
2022-10-18T18:06:33.456Z,6.50
2022-10-18T18:08:05.446Z,6.70
2022-10-18T18:09:37.219Z,6.45
2022-10-18T18:11:10.359Z,6.53
2022-10-18T18:12:43.902Z,6.40
2022-10-18T18:14:16.081Z,6.07
2022-10-18T18:15:47.715Z,7.25
2022-10-18T18:17:28.625Z,6.70
2022-10-18T18:19:09.522Z,6.22
2022-10-18T18:20:41.661Z,6.78
2022-10-18T18:22:14.041Z,6.30
2022-10-18T18:23:45.687Z,6.50
2022-10-18T18:25:17.488Z,6.60
2022-10-18T18:26:50.587Z,7.20
2022-10-18T18:28:22.260Z,7.25
2022-10-18T18:29:53.984Z,6.95
2022-10-18T18:31:25.736Z,7.22
2022-10-18T18:32:57.448Z,7.70
2022-10-18T18:34:29.084Z,7.15
2022-10-18T18:36:00.754Z,6.88
2022-10-18T18:37:32.519Z,7.07
2022-10-18T18:39:05.603Z,7.47
2022-10-18T18:40:37.328Z,6.88
2022-10-18T18:42:10.875Z,7.18
2022-10-18T18:43:43.621Z,6.78
2022-10-18T18:45:15.382Z,7.55
2022-10-18T18:46:47.334Z,6.95
2022-10-18T18:48:19.948Z,7.50
2022-10-18T18:49:51.836Z,6.43
2022-10-18T18:51:24.728Z,7.10
2022-10-18T18:52:56.469Z,6.45
2022-10-18T18:54:29.703Z,6.63
2022-10-18T18:56:02.783Z,7.57
2022-10-18T18:57:36.049Z,7.07
2022-10-18T18:59:07.936Z,7.38
2022-10-18T19:00:43.383Z,7.72
2022-10-18T19:02:16.164Z,7.40
2022-10-18T19:03:48.819Z,8.18
2022-10-18T19:05:20.558Z,7.80
2022-10-18T19:06:54.577Z,9.02
2022-10-18T19:08:30.680Z,8.18
2022-10-18T19:10:02.391Z,7.60
2022-10-18T19:11:35.470Z,9.95
2022-10-18T19:13:08.498Z,7.90
2022-10-18T19:14:40.127Z,8.75
2022-10-18T19:16:23.076Z,8.80
2022-10-18T19:17:55.169Z,10.10
2022-10-18T19:19:27.416Z,8.20
2022-10-18T19:20:59.067Z,8.38
2022-10-18T19:22:30.713Z,8.85
2022-10-18T19:24:02.484Z,8.10
2022-10-18T19:25:34.186Z,7.80
2022-10-18T19:27:09.571Z,8.27
2022-10-18T19:28:44.830Z,8.82
2022-10-18T19:30:16.570Z,7.80
2022-10-18T19:31:48.761Z,7.50
2022-10-18T19:33:35.541Z,7.43
2022-10-18T19:35:22.831Z,9.30
2022-10-18T19:36:54.589Z,6.88
2022-10-18T19:38:26.324Z,7.40
2022-10-18T19:39:58.625Z,7.22
2022-10-18T19:41:30.343Z,7.70
2022-10-18T19:43:02.101Z,7.60
2022-10-18T19:44:36.023Z,7.38
2022-10-18T19:46:07.698Z,7.95
2022-10-18T19:47:41.196Z,7.10
2022-10-18T19:49:12.889Z,7.53
2022-10-18T19:50:44.701Z,7.00
2022-10-18T19:52:22.630Z,7.70
2022-10-18T19:53:54.630Z,7.22
2022-10-18T19:55:27.168Z,7.43
2022-10-18T19:57:05.210Z,8.57
2022-10-18T19:58:36.881Z,8.25
2022-10-18T20:00:12.450Z,7.65
2022-10-18T20:01:45.344Z,8.00
2022-10-18T20:03:17.041Z,8.02
2022-10-18T20:04:48.681Z,7.68
2022-10-18T20:06:20.455Z,7.28
2022-10-18T20:07:52.253Z,9.63
2022-10-18T20:09:26.693Z,7.60
2022-10-18T20:11:00.473Z,7.13
2022-10-18T20:12:32.472Z,8.10
2022-10-18T20:14:05.563Z,8.15
2022-10-18T20:15:38.568Z,7.20
2022-10-18T20:17:12.901Z,7.80
2022-10-18T20:18:44.687Z,7.50
2022-10-18T20:20:16.386Z,6.70
2022-10-18T20:21:48.034Z,7.53
2022-10-18T20:23:19.787Z,6.75
2022-10-18T20:24:51.363Z,6.97
2022-10-18T20:26:23.168Z,7.53
2022-10-18T20:27:54.812Z,7.43
2022-10-18T20:29:26.802Z,7.13
2022-10-18T20:31:03.986Z,7.00
2022-10-18T20:32:35.711Z,7.82
2022-10-18T20:34:11.175Z,7.63
2022-10-18T20:35:42.878Z,7.55
2022-10-18T20:37:14.570Z,6.50
2022-10-18T20:38:48.286Z,6.78
2022-10-18T20:40:19.922Z,7.22
2022-10-18T20:41:51.568Z,7.90
2022-10-18T20:43:23.232Z,7.07
2022-10-18T20:44:54.913Z,6.80
2022-10-18T20:46:29.944Z,6.80
2022-10-18T20:48:01.605Z,6.53
2022-10-18T20:49:33.273Z,6.97
2022-10-18T20:51:05.518Z,7.40
2022-10-18T20:52:37.419Z,6.38